sensor_id;sensor_type;location;lat;lon;timestamp;temperature;humidity
21811;DHT22;11067;48.788;9.208;2023-05-10T00:00:12;15.00;99.90
21811;DHT22;11067;48.788;9.208;2023-05-10T00:02:38;15.00;99.90
21811;DHT22;11067;48.788;9.208;2023-05-10T00:05:04;15.00;99.90
21811;DHT22;11067;48.788;9.208;2023-05-10T00:07:30;14.90;99.90
21811;DHT22;11067;48.788;9.208;2023-05-10T00:09:56;15.00;99.90
21811;DHT22;11067;48.788;9.208;2023-05-10T00:12:21;14.80;99.90
21811;DHT22;11067;48.788;9.208;2023-05-10T00:14:47;14.80;99.90
21811;DHT22;11067;48.788;9.208;2023-05-10T00:17:12;14.70;99.90
21811;DHT22;11067;48.788;9.208;2023-05-10T00:19:38;14.70;99.90
21811;DHT22;11067;48.788;9.208;2023-05-10T00:22:03;14.70;99.90
21811;DHT22;11067;48.788;9.208;2023-05-10T00:24:29;14.60;99.90
21811;DHT22;11067;48.788;9.208;2023-05-10T00:26:54;14.70;99.90
21811;DHT22;11067;48.788;9.208;2023-05-10T00:29:20;14.60;99.90
21811;DHT22;11067;48.788;9.208;2023-05-10T00:31:45;14.50;99.90
21811;DHT22;11067;48.788;9.208;2023-05-10T00:34:11;14.50;99.90
21811;DHT22;11067;48.788;9.208;2023-05-10T00:36:37;14.30;99.90
21811;DHT22;11067;48.788;9.208;2023-05-10T00:39:02;14.20;99.90
21811;DHT22;11067;48.788;9.208;2023-05-10T00:41:29;14.10;99.90
21811;DHT22;11067;48.788;9.208;2023-05-10T00:43:57;14.10;99.90
21811;DHT22;11067;48.788;9.208;2023-05-10T00:46:22;14.10;99.90
21811;DHT22;11067;48.788;9.208;2023-05-10T00:48:49;14.10;99.90
21811;DHT22;11067;48.788;9.208;2023-05-10T00:51:15;14.00;99.90
21811;DHT22;11067;48.788;9.208;2023-05-10T00:53:40;14.00;99.90
21811;DHT22;11067;48.788;9.208;2023-05-10T00:56:06;14.00;99.90
21811;DHT22;11067;48.788;9.208;2023-05-10T00:58:32;14.00;99.90
21811;DHT22;11067;48.788;9.208;2023-05-10T01:00:58;13.90;99.90
21811;DHT22;11067;48.788;9.208;2023-05-10T01:03:25;13.90;99.90
21811;DHT22;11067;48.788;9.208;2023-05-10T01:05:50;13.90;99.90
21811;DHT22;11067;48.788;9.208;2023-05-10T01:08:16;13.90;99.90
21811;DHT22;11067;48.788;9.208;2023-05-10T01:10:42;13.90;99.90
21811;DHT22;11067;48.788;9.208;2023-05-10T01:13:09;13.90;99.90
21811;DHT22;11067;48.788;9.208;2023-05-10T01:15:35;13.90;99.90
21811;DHT22;11067;48.788;9.208;2023-05-10T01:18:02;13.90;99.90
21811;DHT22;11067;48.788;9.208;2023-05-10T01:20:35;13.80;99.90
21811;DHT22;11067;48.788;9.208;2023-05-10T01:26:18;13.80;99.90
21811;DHT22;11067;48.788;9.208;2023-05-10T01:29:14;13.80;99.90
21811;DHT22;11067;48.788;9.208;2023-05-10T01:34:34;13.70;99.90
21811;DHT22;11067;48.788;9.208;2023-05-10T01:37:09;13.80;99.90
21811;DHT22;11067;48.788;9.208;2023-05-10T01:39:55;13.70;99.90
21811;DHT22;11067;48.788;9.208;2023-05-10T01:42:26;13.70;99.90
21811;DHT22;11067;48.788;9.208;2023-05-10T01:45:00;13.70;99.90
21811;DHT22;11067;48.788;9.208;2023-05-10T01:47:38;13.70;99.90
21811;DHT22;11067;48.788;9.208;2023-05-10T01:50:10;13.70;99.90
21811;DHT22;11067;48.788;9.208;2023-05-10T01:52:42;13.70;99.90
21811;DHT22;11067;48.788;9.208;2023-05-10T01:55:13;13.70;99.90
21811;DHT22;11067;48.788;9.208;2023-05-10T01:57:40;13.70;99.90
21811;DHT22;11067;48.788;9.208;2023-05-10T02:00:08;13.70;99.90
21811;DHT22;11067;48.788;9.208;2023-05-10T02:02:39;13.70;99.90
21811;DHT22;11067;48.788;9.208;2023-05-10T02:05:06;13.70;99.90
21811;DHT22;11067;48.788;9.208;2023-05-10T02:07:35;13.60;99.90
21811;DHT22;11067;48.788;9.208;2023-05-10T02:10:03;13.60;99.90
21811;DHT22;11067;48.788;9.208;2023-05-10T02:12:31;13.60;99.90
21811;DHT22;11067;48.788;9.208;2023-05-10T02:14:59;13.50;99.90
21811;DHT22;11067;48.788;9.208;2023-05-10T02:17:27;13.60;99.90
21811;DHT22;11067;48.788;9.208;2023-05-10T02:19:55;13.50;99.90
21811;DHT22;11067;48.788;9.208;2023-05-10T02:22:22;13.50;99.90
21811;DHT22;11067;48.788;9.208;2023-05-10T02:24:49;13.50;99.90
21811;DHT22;11067;48.788;9.208;2023-05-10T02:27:20;13.50;99.90
21811;DHT22;11067;48.788;9.208;2023-05-10T02:29:46;13.50;99.90
21811;DHT22;11067;48.788;9.208;2023-05-10T02:32:12;13.60;99.90
21811;DHT22;11067;48.788;9.208;2023-05-10T02:34:39;13.60;99.90
21811;DHT22;11067;48.788;9.208;2023-05-10T02:37:05;13.60;99.90
21811;DHT22;11067;48.788;9.208;2023-05-10T02:39:32;13.60;99.90
21811;DHT22;11067;48.788;9.208;2023-05-10T02:41:58;13.60;99.90
21811;DHT22;11067;48.788;9.208;2023-05-10T02:44:26;13.60;99.90
21811;DHT22;11067;48.788;9.208;2023-05-10T02:46:53;13.50;99.90
21811;DHT22;11067;48.788;9.208;2023-05-10T02:49:21;13.60;99.90
21811;DHT22;11067;48.788;9.208;2023-05-10T02:51:53;13.60;99.90
21811;DHT22;11067;48.788;9.208;2023-05-10T02:54:24;13.70;99.90
21811;DHT22;11067;48.788;9.208;2023-05-10T02:56:57;13.60;99.90
21811;DHT22;11067;48.788;9.208;2023-05-10T02:59:23;13.60;99.90
21811;DHT22;11067;48.788;9.208;2023-05-10T03:01:48;13.60;99.90
21811;DHT22;11067;48.788;9.208;2023-05-10T03:04:14;13.60;99.90
21811;DHT22;11067;48.788;9.208;2023-05-10T03:06:40;13.60;99.90
21811;DHT22;11067;48.788;9.208;2023-05-10T03:09:06;13.60;99.90
21811;DHT22;11067;48.788;9.208;2023-05-10T03:11:43;13.60;99.90
21811;DHT22;11067;48.788;9.208;2023-05-10T03:14:34;13.60;99.90
21811;DHT22;11067;48.788;9.208;2023-05-10T03:20:03;13.60;99.90
21811;DHT22;11067;48.788;9.208;2023-05-10T03:22:38;13.50;99.90
21811;DHT22;11067;48.788;9.208;2023-05-10T03:25:07;13.70;99.90
21811;DHT22;11067;48.788;9.208;2023-05-10T03:27:35;13.60;99.90
21811;DHT22;11067;48.788;9.208;2023-05-10T03:30:02;13.60;99.90
21811;DHT22;11067;48.788;9.208;2023-05-10T03:32:29;13.60;99.90
21811;DHT22;11067;48.788;9.208;2023-05-10T03:34:57;13.50;99.90
21811;DHT22;11067;48.788;9.208;2023-05-10T03:37:22;13.50;99.90
21811;DHT22;11067;48.788;9.208;2023-05-10T03:39:48;13.50;99.90
21811;DHT22;11067;48.788;9.208;2023-05-10T03:42:13;13.60;99.90
21811;DHT22;11067;48.788;9.208;2023-05-10T03:44:39;13.60;99.90
21811;DHT22;11067;48.788;9.208;2023-05-10T03:47:05;13.60;99.90
21811;DHT22;11067;48.788;9.208;2023-05-10T03:49:31;13.60;99.90
21811;DHT22;11067;48.788;9.208;2023-05-10T03:51:56;13.50;99.90
21811;DHT22;11067;48.788;9.208;2023-05-10T03:54:22;13.50;99.90
21811;DHT22;11067;48.788;9.208;2023-05-10T03:56:47;13.50;99.90
21811;DHT22;11067;48.788;9.208;2023-05-10T03:59:13;13.60;99.90
21811;DHT22;11067;48.788;9.208;2023-05-10T04:01:38;13.60;99.90
21811;DHT22;11067;48.788;9.208;2023-05-10T04:04:04;13.60;99.90
21811;DHT22;11067;48.788;9.208;2023-05-10T04:06:29;13.60;99.90
21811;DHT22;11067;48.788;9.208;2023-05-10T04:08:56;13.60;99.90
21811;DHT22;11067;48.788;9.208;2023-05-10T04:11:21;13.60;99.90
21811;DHT22;11067;48.788;9.208;2023-05-10T04:13:47;13.60;99.90
21811;DHT22;11067;48.788;9.208;2023-05-10T04:16:13;13.60;99.90
21811;DHT22;11067;48.788;9.208;2023-05-10T04:18:39;13.50;99.90
21811;DHT22;11067;48.788;9.208;2023-05-10T04:21:11;13.60;99.90
21811;DHT22;11067;48.788;9.208;2023-05-10T04:23:37;13.60;99.90
21811;DHT22;11067;48.788;9.208;2023-05-10T04:26:03;13.60;99.90
21811;DHT22;11067;48.788;9.208;2023-05-10T04:28:28;13.60;99.90
21811;DHT22;11067;48.788;9.208;2023-05-10T04:31:00;13.60;99.90
21811;DHT22;11067;48.788;9.208;2023-05-10T04:33:26;13.60;99.90
21811;DHT22;11067;48.788;9.208;2023-05-10T04:35:52;13.70;99.90
21811;DHT22;11067;48.788;9.208;2023-05-10T04:38:17;13.70;99.90
21811;DHT22;11067;48.788;9.208;2023-05-10T04:40:43;13.70;99.90
21811;DHT22;11067;48.788;9.208;2023-05-10T04:43:08;13.70;99.90
21811;DHT22;11067;48.788;9.208;2023-05-10T04:45:34;13.70;99.90
21811;DHT22;11067;48.788;9.208;2023-05-10T04:47:59;13.70;99.90
21811;DHT22;11067;48.788;9.208;2023-05-10T04:50:25;13.60;99.90
21811;DHT22;11067;48.788;9.208;2023-05-10T04:52:50;13.70;99.90
21811;DHT22;11067;48.788;9.208;2023-05-10T04:55:16;13.70;99.90
21811;DHT22;11067;48.788;9.208;2023-05-10T04:57:41;13.70;99.90
21811;DHT22;11067;48.788;9.208;2023-05-10T05:00:07;13.80;99.90
21811;DHT22;11067;48.788;9.208;2023-05-10T05:02:33;13.80;99.90
21811;DHT22;11067;48.788;9.208;2023-05-10T05:04:59;13.80;99.90
21811;DHT22;11067;48.788;9.208;2023-05-10T05:07:24;13.80;99.90
21811;DHT22;11067;48.788;9.208;2023-05-10T05:09:50;13.80;99.90
21811;DHT22;11067;48.788;9.208;2023-05-10T05:12:16;13.90;99.90
21811;DHT22;11067;48.788;9.208;2023-05-10T05:14:41;14.00;99.90
21811;DHT22;11067;48.788;9.208;2023-05-10T05:17:07;14.10;99.90
21811;DHT22;11067;48.788;9.208;2023-05-10T05:19:33;14.10;99.90
21811;DHT22;11067;48.788;9.208;2023-05-10T05:21:58;14.20;99.90
21811;DHT22;11067;48.788;9.208;2023-05-10T05:24:23;14.40;99.90
21811;DHT22;11067;48.788;9.208;2023-05-10T05:26:49;14.30;99.90
21811;DHT22;11067;48.788;9.208;2023-05-10T05:29:15;14.30;99.90
21811;DHT22;11067;48.788;9.208;2023-05-10T05:31:40;14.30;99.90
21811;DHT22;11067;48.788;9.208;2023-05-10T05:34:06;14.40;99.90
21811;DHT22;11067;48.788;9.208;2023-05-10T05:36:31;14.30;99.90
21811;DHT22;11067;48.788;9.208;2023-05-10T05:38:57;14.40;99.90
21811;DHT22;11067;48.788;9.208;2023-05-10T05:41:22;14.50;99.90
21811;DHT22;11067;48.788;9.208;2023-05-10T05:43:49;14.60;99.90
21811;DHT22;11067;48.788;9.208;2023-05-10T05:46:15;14.50;99.90
21811;DHT22;11067;48.788;9.208;2023-05-10T05:48:40;14.50;99.90
21811;DHT22;11067;48.788;9.208;2023-05-10T05:51:06;14.50;99.90
21811;DHT22;11067;48.788;9.208;2023-05-10T05:53:31;14.60;99.90
21811;DHT22;11067;48.788;9.208;2023-05-10T05:55:58;14.70;99.90
21811;DHT22;11067;48.788;9.208;2023-05-10T05:58:24;14.70;99.90
21811;DHT22;11067;48.788;9.208;2023-05-10T06:00:50;14.90;99.90
21811;DHT22;11067;48.788;9.208;2023-05-10T06:03:17;14.80;99.90
21811;DHT22;11067;48.788;9.208;2023-05-10T06:05:43;14.60;99.90
21811;DHT22;11067;48.788;9.208;2023-05-10T06:08:08;14.70;99.90
21811;DHT22;11067;48.788;9.208;2023-05-10T06:10:35;14.70;99.90
21811;DHT22;11067;48.788;9.208;2023-05-10T06:13:00;14.70;99.90
21811;DHT22;11067;48.788;9.208;2023-05-10T06:15:27;14.70;99.90
21811;DHT22;11067;48.788;9.208;2023-05-10T06:17:52;14.60;99.90
21811;DHT22;11067;48.788;9.208;2023-05-10T06:20:18;14.50;99.90
21811;DHT22;11067;48.788;9.208;2023-05-10T06:22:43;14.50;99.90
21811;DHT22;11067;48.788;9.208;2023-05-10T06:25:09;14.70;99.90
21811;DHT22;11067;48.788;9.208;2023-05-10T06:27:35;14.90;99.90
21811;DHT22;11067;48.788;9.208;2023-05-10T06:30:00;14.90;99.90
21811;DHT22;11067;48.788;9.208;2023-05-10T06:32:26;14.90;99.90
21811;DHT22;11067;48.788;9.208;2023-05-10T06:34:51;14.90;99.90
21811;DHT22;11067;48.788;9.208;2023-05-10T06:37:17;14.70;99.90
21811;DHT22;11067;48.788;9.208;2023-05-10T06:39:43;14.70;99.90
21811;DHT22;11067;48.788;9.208;2023-05-10T06:42:08;14.80;99.90
21811;DHT22;11067;48.788;9.208;2023-05-10T06:44:34;14.90;99.90
21811;DHT22;11067;48.788;9.208;2023-05-10T06:46:59;14.90;99.90
21811;DHT22;11067;48.788;9.208;2023-05-10T06:49:25;14.90;99.90
21811;DHT22;11067;48.788;9.208;2023-05-10T06:51:51;14.80;99.90
21811;DHT22;11067;48.788;9.208;2023-05-10T06:54:17;14.80;99.90
21811;DHT22;11067;48.788;9.208;2023-05-10T06:56:43;14.90;99.90
21811;DHT22;11067;48.788;9.208;2023-05-10T06:59:08;15.00;99.90
21811;DHT22;11067;48.788;9.208;2023-05-10T07:01:34;15.00;99.90
21811;DHT22;11067;48.788;9.208;2023-05-10T07:03:59;14.90;99.90
21811;DHT22;11067;48.788;9.208;2023-05-10T07:06:25;14.90;99.90
21811;DHT22;11067;48.788;9.208;2023-05-10T07:08:51;14.80;99.90
21811;DHT22;11067;48.788;9.208;2023-05-10T07:11:16;14.90;99.90
21811;DHT22;11067;48.788;9.208;2023-05-10T07:13:42;14.80;99.90
21811;DHT22;11067;48.788;9.208;2023-05-10T07:16:09;15.00;99.90
21811;DHT22;11067;48.788;9.208;2023-05-10T07:18:35;15.00;99.90
21811;DHT22;11067;48.788;9.208;2023-05-10T07:21:01;15.00;99.90
21811;DHT22;11067;48.788;9.208;2023-05-10T07:23:27;15.30;99.90
21811;DHT22;11067;48.788;9.208;2023-05-10T07:25:53;15.70;99.90
21811;DHT22;11067;48.788;9.208;2023-05-10T07:28:19;15.60;99.90
21811;DHT22;11067;48.788;9.208;2023-05-10T07:30:44;15.50;99.90
21811;DHT22;11067;48.788;9.208;2023-05-10T07:33:12;15.80;99.90
21811;DHT22;11067;48.788;9.208;2023-05-10T07:35:37;15.80;99.90
21811;DHT22;11067;48.788;9.208;2023-05-10T07:38:03;16.10;99.90
21811;DHT22;11067;48.788;9.208;2023-05-10T07:40:29;16.20;99.90
21811;DHT22;11067;48.788;9.208;2023-05-10T07:42:55;16.20;99.90
21811;DHT22;11067;48.788;9.208;2023-05-10T07:45:20;16.00;99.90
21811;DHT22;11067;48.788;9.208;2023-05-10T07:47:46;16.20;99.90
21811;DHT22;11067;48.788;9.208;2023-05-10T07:50:11;16.50;99.90
21811;DHT22;11067;48.788;9.208;2023-05-10T07:52:37;16.50;99.90
21811;DHT22;11067;48.788;9.208;2023-05-10T07:55:02;16.30;99.90
21811;DHT22;11067;48.788;9.208;2023-05-10T07:57:28;16.00;99.90
21811;DHT22;11067;48.788;9.208;2023-05-10T07:59:54;16.30;99.90
21811;DHT22;11067;48.788;9.208;2023-05-10T08:02:19;16.50;99.90
21811;DHT22;11067;48.788;9.208;2023-05-10T08:04:45;16.40;99.90
21811;DHT22;11067;48.788;9.208;2023-05-10T08:07:10;16.30;99.90
21811;DHT22;11067;48.788;9.208;2023-05-10T08:09:36;16.30;99.90
21811;DHT22;11067;48.788;9.208;2023-05-10T08:12:02;16.10;99.90
21811;DHT22;11067;48.788;9.208;2023-05-10T08:14:28;16.00;99.90
21811;DHT22;11067;48.788;9.208;2023-05-10T08:16:54;15.90;99.90
21811;DHT22;11067;48.788;9.208;2023-05-10T08:19:19;15.90;99.90
21811;DHT22;11067;48.788;9.208;2023-05-10T08:21:46;15.80;99.90
21811;DHT22;11067;48.788;9.208;2023-05-10T08:24:12;15.90;99.90
21811;DHT22;11067;48.788;9.208;2023-05-10T08:26:38;16.00;99.90
21811;DHT22;11067;48.788;9.208;2023-05-10T08:29:03;16.10;99.90
21811;DHT22;11067;48.788;9.208;2023-05-10T08:31:29;16.10;99.90
21811;DHT22;11067;48.788;9.208;2023-05-10T08:33:54;16.10;99.90
21811;DHT22;11067;48.788;9.208;2023-05-10T08:36:20;16.20;99.90
21811;DHT22;11067;48.788;9.208;2023-05-10T08:38:50;16.20;99.90
21811;DHT22;11067;48.788;9.208;2023-05-10T08:41:18;16.30;99.90
21811;DHT22;11067;48.788;9.208;2023-05-10T08:43:46;16.10;99.90
21811;DHT22;11067;48.788;9.208;2023-05-10T08:46:15;16.10;99.90
21811;DHT22;11067;48.788;9.208;2023-05-10T08:48:42;16.30;99.90
21811;DHT22;11067;48.788;9.208;2023-05-10T08:51:09;16.30;99.90
21811;DHT22;11067;48.788;9.208;2023-05-10T08:53:36;16.50;99.90
21811;DHT22;11067;48.788;9.208;2023-05-10T08:56:03;16.50;99.90
21811;DHT22;11067;48.788;9.208;2023-05-10T08:58:29;16.60;99.90
21811;DHT22;11067;48.788;9.208;2023-05-10T09:00:55;16.30;99.90
21811;DHT22;11067;48.788;9.208;2023-05-10T09:03:21;16.70;99.90
21811;DHT22;11067;48.788;9.208;2023-05-10T09:05:47;16.60;99.90
21811;DHT22;11067;48.788;9.208;2023-05-10T09:08:15;16.90;99.90
21811;DHT22;11067;48.788;9.208;2023-05-10T09:10:45;17.00;99.90
21811;DHT22;11067;48.788;9.208;2023-05-10T09:13:13;16.90;99.90
21811;DHT22;11067;48.788;9.208;2023-05-10T09:15:39;17.00;99.90
21811;DHT22;11067;48.788;9.208;2023-05-10T09:18:05;16.80;99.90
21811;DHT22;11067;48.788;9.208;2023-05-10T09:20:30;16.80;99.90
21811;DHT22;11067;48.788;9.208;2023-05-10T09:22:56;16.90;99.90
21811;DHT22;11067;48.788;9.208;2023-05-10T09:25:22;16.90;99.90
21811;DHT22;11067;48.788;9.208;2023-05-10T09:27:48;16.70;99.90
21811;DHT22;11067;48.788;9.208;2023-05-10T09:30:28;16.70;99.90
21811;DHT22;11067;48.788;9.208;2023-05-10T09:32:54;16.40;99.90
21811;DHT22;11067;48.788;9.208;2023-05-10T09:35:22;16.70;99.90
21811;DHT22;11067;48.788;9.208;2023-05-10T09:37:50;16.80;99.90
21811;DHT22;11067;48.788;9.208;2023-05-10T09:40:23;16.90;99.90
21811;DHT22;11067;48.788;9.208;2023-05-10T09:43:04;16.90;99.90
21811;DHT22;11067;48.788;9.208;2023-05-10T09:45:33;17.30;99.90
21811;DHT22;11067;48.788;9.208;2023-05-10T09:48:00;17.20;99.90
21811;DHT22;11067;48.788;9.208;2023-05-10T09:50:27;17.50;99.90
21811;DHT22;11067;48.788;9.208;2023-05-10T09:53:00;17.40;99.90
21811;DHT22;11067;48.788;9.208;2023-05-10T09:55:42;17.20;99.90
21811;DHT22;11067;48.788;9.208;2023-05-10T09:58:10;17.30;99.90
21811;DHT22;11067;48.788;9.208;2023-05-10T10:00:43;17.30;99.90
21811;DHT22;11067;48.788;9.208;2023-05-10T10:03:13;17.50;99.90
21811;DHT22;11067;48.788;9.208;2023-05-10T10:05:40;17.10;99.90
21811;DHT22;11067;48.788;9.208;2023-05-10T10:08:08;17.30;99.90
21811;DHT22;11067;48.788;9.208;2023-05-10T10:10:33;17.50;99.90
21811;DHT22;11067;48.788;9.208;2023-05-10T10:13:00;17.20;99.90
21811;DHT22;11067;48.788;9.208;2023-05-10T10:15:26;17.30;99.90
21811;DHT22;11067;48.788;9.208;2023-05-10T10:17:52;17.30;99.90
21811;DHT22;11067;48.788;9.208;2023-05-10T10:20:20;17.30;99.90
21811;DHT22;11067;48.788;9.208;2023-05-10T10:22:46;17.30;99.90
21811;DHT22;11067;48.788;9.208;2023-05-10T10:25:14;17.10;99.90
21811;DHT22;11067;48.788;9.208;2023-05-10T10:30:43;17.10;99.90
21811;DHT22;11067;48.788;9.208;2023-05-10T10:33:30;17.00;99.90
21811;DHT22;11067;48.788;9.208;2023-05-10T10:36:00;16.60;99.90
21811;DHT22;11067;48.788;9.208;2023-05-10T10:38:36;16.60;99.90
21811;DHT22;11067;48.788;9.208;2023-05-10T10:41:09;16.70;99.90
21811;DHT22;11067;48.788;9.208;2023-05-10T10:43:35;16.90;99.90
21811;DHT22;11067;48.788;9.208;2023-05-10T10:46:10;17.00;99.90
21811;DHT22;11067;48.788;9.208;2023-05-10T10:48:49;17.20;99.90
21811;DHT22;11067;48.788;9.208;2023-05-10T10:51:16;17.10;99.90
21811;DHT22;11067;48.788;9.208;2023-05-10T10:53:43;17.30;99.90
21811;DHT22;11067;48.788;9.208;2023-05-10T10:56:10;16.90;99.90
21811;DHT22;11067;48.788;9.208;2023-05-10T10:58:37;17.20;99.90
21811;DHT22;11067;48.788;9.208;2023-05-10T11:01:17;17.00;99.90
21811;DHT22;11067;48.788;9.208;2023-05-10T11:04:18;17.00;99.90
21811;DHT22;11067;48.788;9.208;2023-05-10T11:06:44;17.00;99.90
21811;DHT22;11067;48.788;9.208;2023-05-10T11:09:12;17.00;99.90
21811;DHT22;11067;48.788;9.208;2023-05-10T11:11:53;17.00;99.90
21811;DHT22;11067;48.788;9.208;2023-05-10T11:14:23;17.10;99.90
21811;DHT22;11067;48.788;9.208;2023-05-10T11:16:49;16.60;99.90
21811;DHT22;11067;48.788;9.208;2023-05-10T11:19:16;16.80;99.90
21811;DHT22;11067;48.788;9.208;2023-05-10T11:24:20;16.40;99.90
21811;DHT22;11067;48.788;9.208;2023-05-10T11:26:46;16.50;99.90
21811;DHT22;11067;48.788;9.208;2023-05-10T11:29:15;16.50;99.90
21811;DHT22;11067;48.788;9.208;2023-05-10T11:31:44;16.60;99.90
21811;DHT22;11067;48.788;9.208;2023-05-10T11:34:11;16.60;99.90
21811;DHT22;11067;48.788;9.208;2023-05-10T11:36:37;16.70;99.90
21811;DHT22;11067;48.788;9.208;2023-05-10T11:39:03;17.00;99.90
21811;DHT22;11067;48.788;9.208;2023-05-10T11:41:30;17.10;99.90
21811;DHT22;11067;48.788;9.208;2023-05-10T11:43:56;17.40;99.90
21811;DHT22;11067;48.788;9.208;2023-05-10T11:46:24;17.00;99.90
21811;DHT22;11067;48.788;9.208;2023-05-10T11:48:58;17.40;99.90
21811;DHT22;11067;48.788;9.208;2023-05-10T11:51:25;17.50;99.90
21811;DHT22;11067;48.788;9.208;2023-05-10T11:53:53;17.10;99.90
21811;DHT22;11067;48.788;9.208;2023-05-10T11:56:19;17.20;99.90
21811;DHT22;11067;48.788;9.208;2023-05-10T11:58:54;16.90;99.90
21811;DHT22;11067;48.788;9.208;2023-05-10T12:01:21;17.10;99.90
21811;DHT22;11067;48.788;9.208;2023-05-10T12:03:48;17.10;99.90
21811;DHT22;11067;48.788;9.208;2023-05-10T12:06:14;17.00;99.90
21811;DHT22;11067;48.788;9.208;2023-05-10T12:08:44;16.90;99.90
21811;DHT22;11067;48.788;9.208;2023-05-10T12:11:12;16.60;99.90
21811;DHT22;11067;48.788;9.208;2023-05-10T12:13:39;16.50;99.90
21811;DHT22;11067;48.788;9.208;2023-05-10T12:16:25;16.50;99.90
21811;DHT22;11067;48.788;9.208;2023-05-10T12:18:56;16.50;99.90
21811;DHT22;11067;48.788;9.208;2023-05-10T12:21:22;16.40;99.90
21811;DHT22;11067;48.788;9.208;2023-05-10T12:23:50;16.60;99.90
21811;DHT22;11067;48.788;9.208;2023-05-10T12:26:16;16.40;99.90
21811;DHT22;11067;48.788;9.208;2023-05-10T12:28:41;16.40;99.90
21811;DHT22;11067;48.788;9.208;2023-05-10T12:31:07;16.50;99.90
21811;DHT22;11067;48.788;9.208;2023-05-10T12:33:41;16.80;99.90
21811;DHT22;11067;48.788;9.208;2023-05-10T12:36:11;16.90;99.90
21811;DHT22;11067;48.788;9.208;2023-05-10T12:38:42;17.20;99.90
21811;DHT22;11067;48.788;9.208;2023-05-10T12:41:16;17.10;99.90
21811;DHT22;11067;48.788;9.208;2023-05-10T12:43:42;17.20;99.90
21811;DHT22;11067;48.788;9.208;2023-05-10T12:46:12;17.20;99.90
21811;DHT22;11067;48.788;9.208;2023-05-10T12:48:38;16.90;99.90
21811;DHT22;11067;48.788;9.208;2023-05-10T12:51:05;16.90;99.90
21811;DHT22;11067;48.788;9.208;2023-05-10T12:53:34;17.00;99.90
21811;DHT22;11067;48.788;9.208;2023-05-10T12:56:00;16.70;99.90
21811;DHT22;11067;48.788;9.208;2023-05-10T12:58:25;17.10;99.90
21811;DHT22;11067;48.788;9.208;2023-05-10T13:00:51;17.00;99.90
21811;DHT22;11067;48.788;9.208;2023-05-10T13:03:17;16.90;99.90
21811;DHT22;11067;48.788;9.208;2023-05-10T13:05:43;17.00;99.90
21811;DHT22;11067;48.788;9.208;2023-05-10T13:08:08;16.90;99.90
21811;DHT22;11067;48.788;9.208;2023-05-10T13:10:34;16.90;99.90
21811;DHT22;11067;48.788;9.208;2023-05-10T13:12:59;17.00;99.90
21811;DHT22;11067;48.788;9.208;2023-05-10T13:15:25;17.10;99.90
21811;DHT22;11067;48.788;9.208;2023-05-10T13:17:51;16.80;99.90
21811;DHT22;11067;48.788;9.208;2023-05-10T13:20:16;16.80;99.90
21811;DHT22;11067;48.788;9.208;2023-05-10T13:22:45;16.90;99.90
21811;DHT22;11067;48.788;9.208;2023-05-10T13:25:11;16.90;99.90
21811;DHT22;11067;48.788;9.208;2023-05-10T13:27:53;16.90;99.90
21811;DHT22;11067;48.788;9.208;2023-05-10T13:30:19;16.70;99.90
21811;DHT22;11067;48.788;9.208;2023-05-10T13:32:44;16.80;99.90
21811;DHT22;11067;48.788;9.208;2023-05-10T13:35:10;16.80;99.90
21811;DHT22;11067;48.788;9.208;2023-05-10T13:37:36;16.90;99.90
21811;DHT22;11067;48.788;9.208;2023-05-10T13:40:03;17.20;99.90
21811;DHT22;11067;48.788;9.208;2023-05-10T13:42:29;17.40;99.90
21811;DHT22;11067;48.788;9.208;2023-05-10T13:44:55;17.30;99.90
21811;DHT22;11067;48.788;9.208;2023-05-10T13:47:20;17.50;99.90
21811;DHT22;11067;48.788;9.208;2023-05-10T13:49:47;17.50;99.90
21811;DHT22;11067;48.788;9.208;2023-05-10T13:52:12;17.30;99.90
21811;DHT22;11067;48.788;9.208;2023-05-10T13:54:38;17.10;99.90
21811;DHT22;11067;48.788;9.208;2023-05-10T13:57:05;17.20;99.90
21811;DHT22;11067;48.788;9.208;2023-05-10T13:59:30;17.30;99.90
21811;DHT22;11067;48.788;9.208;2023-05-10T14:01:59;17.30;99.90
21811;DHT22;11067;48.788;9.208;2023-05-10T14:04:27;17.00;99.90
21811;DHT22;11067;48.788;9.208;2023-05-10T14:06:53;17.00;99.90
21811;DHT22;11067;48.788;9.208;2023-05-10T14:09:19;17.00;99.90
21811;DHT22;11067;48.788;9.208;2023-05-10T14:11:45;17.20;99.90
21811;DHT22;11067;48.788;9.208;2023-05-10T14:14:11;17.20;99.90
21811;DHT22;11067;48.788;9.208;2023-05-10T14:16:38;17.40;99.90
21811;DHT22;11067;48.788;9.208;2023-05-10T14:19:03;17.40;99.90
21811;DHT22;11067;48.788;9.208;2023-05-10T14:21:29;17.70;99.90
21811;DHT22;11067;48.788;9.208;2023-05-10T14:23:57;17.50;99.90
21811;DHT22;11067;48.788;9.208;2023-05-10T14:26:22;17.90;99.90
21811;DHT22;11067;48.788;9.208;2023-05-10T14:28:48;18.10;99.90
21811;DHT22;11067;48.788;9.208;2023-05-10T14:31:14;17.90;99.90
21811;DHT22;11067;48.788;9.208;2023-05-10T14:33:40;17.60;99.90
21811;DHT22;11067;48.788;9.208;2023-05-10T14:36:06;17.70;99.90
21811;DHT22;11067;48.788;9.208;2023-05-10T14:38:32;17.90;99.90
21811;DHT22;11067;48.788;9.208;2023-05-10T14:40:58;17.70;99.90
21811;DHT22;11067;48.788;9.208;2023-05-10T14:43:23;17.40;99.90
21811;DHT22;11067;48.788;9.208;2023-05-10T14:45:49;17.60;99.90
21811;DHT22;11067;48.788;9.208;2023-05-10T14:48:15;17.60;99.90
21811;DHT22;11067;48.788;9.208;2023-05-10T14:50:41;17.50;99.90
21811;DHT22;11067;48.788;9.208;2023-05-10T14:53:06;17.40;99.90
21811;DHT22;11067;48.788;9.208;2023-05-10T14:55:32;17.70;99.90
21811;DHT22;11067;48.788;9.208;2023-05-10T14:57:58;17.70;99.90
21811;DHT22;11067;48.788;9.208;2023-05-10T15:00:23;17.30;99.90
21811;DHT22;11067;48.788;9.208;2023-05-10T15:02:49;17.40;99.90
21811;DHT22;11067;48.788;9.208;2023-05-10T15:05:15;17.40;99.90
21811;DHT22;11067;48.788;9.208;2023-05-10T15:07:40;17.40;99.90
21811;DHT22;11067;48.788;9.208;2023-05-10T15:10:09;17.40;99.90
21811;DHT22;11067;48.788;9.208;2023-05-10T15:12:35;17.40;99.90
21811;DHT22;11067;48.788;9.208;2023-05-10T15:15:00;17.20;99.90
21811;DHT22;11067;48.788;9.208;2023-05-10T15:17:26;17.60;99.90
21811;DHT22;11067;48.788;9.208;2023-05-10T15:19:52;17.40;99.90
21811;DHT22;11067;48.788;9.208;2023-05-10T15:22:17;17.50;99.90
21811;DHT22;11067;48.788;9.208;2023-05-10T15:24:43;17.30;99.90
21811;DHT22;11067;48.788;9.208;2023-05-10T15:27:08;17.40;99.90
21811;DHT22;11067;48.788;9.208;2023-05-10T15:29:34;17.20;99.90
21811;DHT22;11067;48.788;9.208;2023-05-10T15:32:01;17.20;99.90
21811;DHT22;11067;48.788;9.208;2023-05-10T15:34:27;17.30;99.90
21811;DHT22;11067;48.788;9.208;2023-05-10T15:36:53;17.30;99.90
21811;DHT22;11067;48.788;9.208;2023-05-10T15:39:18;17.50;99.90
21811;DHT22;11067;48.788;9.208;2023-05-10T15:41:44;17.40;99.90
21811;DHT22;11067;48.788;9.208;2023-05-10T15:44:10;17.40;99.90